BZN31 KIAD-KPWM
Flight info
| Callsign | BZN31 |
|---|---|
| Flight time | 1h 31m |
| Altitude | 39000 |
| Route | JCOBY4 SWANN BROSS Q419 RBV Q22 LLUND BDR SCOGS3 |
| Aircraft | B38M/M-SDE1FGHILORVWXY/HB1 |
Departure
| Time | 2026-05-08 00:31 |
|---|---|
| Airport | Washington Dulles International Airport (KIAD) |
Arrival
| Time | 2026-05-08 02:03 |
|---|---|
| Airport | Portland International Jetport (KPWM) |
| Time | Latitude | Longitude | Altitude | Speed | Heading |
|---|---|---|---|---|---|
| 2026-05-07 23:56 | 38.94577 | -77.44579 | 303 ft | 0 kts | 180° |
| 2026-05-08 00:19 | 38.94596 | -77.44579 | 304 ft | 4 kts | 180° |
| 2026-05-08 00:19 | 38.94623 | -77.44579 | 303 ft | 4 kts | 180° |
| 2026-05-08 00:19 | 38.94650 | -77.44579 | 303 ft | 4 kts | 180° |
| 2026-05-08 00:20 | 38.94667 | -77.44579 | 303 ft | 0 kts | 180° |
| 2026-05-08 00:23 | 38.94666 | -77.44579 | 303 ft | 1 kts | 182° |
| 2026-05-08 00:23 | 38.94649 | -77.44592 | 305 ft | 5 kts | 233° |
| 2026-05-08 00:23 | 38.94651 | -77.44658 | 303 ft | 10 kts | 280° |
| 2026-05-08 00:24 | 38.94664 | -77.44765 | 303 ft | 14 kts | 273° |
| 2026-05-08 00:24 | 38.94663 | -77.44906 | 303 ft | 17 kts | 268° |
| 2026-05-08 00:24 | 38.94659 | -77.45071 | 303 ft | 19 kts | 268° |
| 2026-05-08 00:24 | 38.94657 | -77.45252 | 303 ft | 21 kts | 274° |
| 2026-05-08 00:25 | 38.94664 | -77.45424 | 303 ft | 17 kts | 271° |
| 2026-05-08 00:25 | 38.94665 | -77.45515 | 303 ft | 9 kts | 271° |
| 2026-05-08 00:25 | 38.94651 | -77.45592 | 304 ft | 9 kts | 227° |
| 2026-05-08 00:25 | 38.94589 | -77.45612 | 303 ft | 10 kts | 181° |
| 2026-05-08 00:26 | 38.94510 | -77.45611 | 304 ft | 13 kts | 180° |
| 2026-05-08 00:26 | 38.94413 | -77.45611 | 304 ft | 15 kts | 180° |
| 2026-05-08 00:26 | 38.94297 | -77.45613 | 303 ft | 18 kts | 181° |
| 2026-05-08 00:26 | 38.94162 | -77.45615 | 303 ft | 20 kts | 181° |
| 2026-05-08 00:27 | 38.94014 | -77.45618 | 303 ft | 22 kts | 181° |
| 2026-05-08 00:27 | 38.93855 | -77.45621 | 305 ft | 22 kts | 180° |
| 2026-05-08 00:27 | 38.93743 | -77.45622 | 303 ft | 14 kts | 180° |
| 2026-05-08 00:27 | 38.93663 | -77.45555 | 304 ft | 15 kts | 130° |
| 2026-05-08 00:28 | 38.93588 | -77.45498 | 303 ft | 12 kts | 187° |
| 2026-05-08 00:28 | 38.93506 | -77.45533 | 302 ft | 13 kts | 200° |
| 2026-05-08 00:28 | 38.93460 | -77.45556 | 305 ft | 0 kts | 201° |
| 2026-05-08 00:29 | 38.93456 | -77.45558 | 303 ft | 2 kts | 201° |
| 2026-05-08 00:29 | 38.93430 | -77.45571 | 301 ft | 6 kts | 201° |
| 2026-05-08 00:29 | 38.93384 | -77.45609 | 302 ft | 9 kts | 238° |
| 2026-05-08 00:29 | 38.93387 | -77.45681 | 302 ft | 0 kts | 289° |
| 2026-05-08 00:30 | 38.93389 | -77.45690 | 305 ft | 4 kts | 289° |
| 2026-05-08 00:30 | 38.93437 | -77.45856 | 302 ft | 51 kts | 291° |
| 2026-05-08 00:31 | 38.93646 | -77.46572 | 305 ft | 117 kts | 290° |
| 2026-05-08 00:31 | 38.93996 | -77.47765 | 361 ft | 162 kts | 291° |
| 2026-05-08 00:31 | 38.94474 | -77.49114 | 902 ft | 170 kts | 292° |
| 2026-05-08 00:31 | 38.94947 | -77.50485 | 1681 ft | 166 kts | 291° |
| 2026-05-08 00:32 | 38.95459 | -77.51848 | 2277 ft | 178 kts | 300° |
| 2026-05-08 00:32 | 38.96481 | -77.52901 | 2665 ft | 207 kts | 340° |
| 2026-05-08 00:32 | 38.97990 | -77.52895 | 3089 ft | 235 kts | 18° |
| 2026-05-08 00:32 | 38.99277 | -77.51590 | 3911 ft | 239 kts | 46° |
| 2026-05-08 00:33 | 39.00451 | -77.50027 | 4704 ft | 246 kts | 40° |
| 2026-05-08 00:33 | 39.01726 | -77.48462 | 5323 ft | 262 kts | 40° |
| 2026-05-08 00:33 | 39.03075 | -77.46799 | 6042 ft | 270 kts | 40° |
| 2026-05-08 00:33 | 39.04421 | -77.45119 | 6953 ft | 273 kts | 40° |
| 2026-05-08 00:34 | 39.05806 | -77.43387 | 7641 ft | 283 kts | 40° |
| 2026-05-08 00:34 | 39.07227 | -77.41603 | 8425 ft | 288 kts | 39° |
| 2026-05-08 00:34 | 39.08681 | -77.39773 | 9143 ft | 296 kts | 39° |
| 2026-05-08 00:34 | 39.10167 | -77.37901 | 9910 ft | 302 kts | 39° |
| 2026-05-08 00:35 | 39.11699 | -77.35970 | 10432 ft | 316 kts | 40° |
| 2026-05-08 00:35 | 39.13317 | -77.33932 | 10836 ft | 333 kts | 41° |
| 2026-05-08 00:35 | 39.14709 | -77.31470 | 11409 ft | 349 kts | 64° |
| 2026-05-08 00:35 | 39.15293 | -77.28422 | 12131 ft | 358 kts | 88° |
| 2026-05-08 00:36 | 39.15011 | -77.25227 | 12775 ft | 364 kts | 106° |
| 2026-05-08 00:36 | 39.14440 | -77.22007 | 13474 ft | 372 kts | 106° |
| 2026-05-08 00:36 | 39.13879 | -77.18724 | 14138 ft | 380 kts | 106° |
| 2026-05-08 00:36 | 39.13336 | -77.15367 | 14862 ft | 385 kts | 105° |
| 2026-05-08 00:37 | 39.12795 | -77.11965 | 15605 ft | 390 kts | 105° |
| 2026-05-08 00:37 | 39.12243 | -77.08517 | 16328 ft | 396 kts | 106° |
| 2026-05-08 00:37 | 39.11683 | -77.05024 | 17045 ft | 401 kts | 106° |
| 2026-05-08 00:38 | 39.10736 | -76.97899 | 18415 ft | 415 kts | 92° |
| 2026-05-08 00:38 | 39.10831 | -76.94163 | 19012 ft | 421 kts | 90° |
| 2026-05-08 00:38 | 39.10923 | -76.90376 | 19564 ft | 426 kts | 90° |
| 2026-05-08 00:38 | 39.11019 | -76.86550 | 20123 ft | 430 kts | 90° |
| 2026-05-08 00:39 | 39.11116 | -76.82681 | 20768 ft | 432 kts | 90° |
| 2026-05-08 00:39 | 39.11213 | -76.78796 | 21312 ft | 438 kts | 90° |
| 2026-05-08 00:39 | 39.11309 | -76.74853 | 21848 ft | 442 kts | 90° |
| 2026-05-08 00:39 | 39.11405 | -76.70875 | 22382 ft | 447 kts | 90° |
| 2026-05-08 00:40 | 39.11501 | -76.66850 | 22865 ft | 452 kts | 90° |
| 2026-05-08 00:40 | 39.11597 | -76.62790 | 23389 ft | 456 kts | 90° |
| 2026-05-08 00:40 | 39.11692 | -76.58684 | 23825 ft | 461 kts | 90° |
| 2026-05-08 00:40 | 39.11786 | -76.54544 | 24242 ft | 465 kts | 90° |
| 2026-05-08 00:41 | 39.12065 | -76.50380 | 24642 ft | 470 kts | 82° |
| 2026-05-08 00:41 | 39.12530 | -76.46197 | 25073 ft | 474 kts | 82° |
| 2026-05-08 00:41 | 39.13004 | -76.41981 | 25489 ft | 478 kts | 82° |
| 2026-05-08 00:41 | 39.13483 | -76.37729 | 25886 ft | 482 kts | 82° |
| 2026-05-08 00:42 | 39.13966 | -76.33441 | 26276 ft | 486 kts | 82° |
| 2026-05-08 00:42 | 39.14450 | -76.29120 | 26668 ft | 489 kts | 82° |
| 2026-05-08 00:42 | 39.14938 | -76.24762 | 27048 ft | 493 kts | 82° |
| 2026-05-08 00:42 | 39.15444 | -76.20377 | 27424 ft | 497 kts | 82° |
| 2026-05-08 00:43 | 39.15953 | -76.15958 | 27799 ft | 501 kts | 82° |
| 2026-05-08 00:43 | 39.16464 | -76.11504 | 28136 ft | 504 kts | 82° |
| 2026-05-08 00:43 | 39.16975 | -76.07025 | 28549 ft | 506 kts | 82° |
| 2026-05-08 00:43 | 39.17486 | -76.02523 | 28898 ft | 510 kts | 82° |
| 2026-05-08 00:44 | 39.17994 | -75.98041 | 29306 ft | 514 kts | 82° |
| 2026-05-08 00:44 | 39.18626 | -75.93495 | 29609 ft | 517 kts | 72° |
| 2026-05-08 00:44 | 39.19933 | -75.89200 | 29964 ft | 513 kts | 57° |
| 2026-05-08 00:44 | 39.21921 | -75.85439 | 30164 ft | 503 kts | 39° |
| 2026-05-08 00:45 | 39.24451 | -75.82397 | 30446 ft | 497 kts | 32° |
| 2026-05-08 00:45 | 39.27069 | -75.79453 | 30686 ft | 501 kts | 32° |
| 2026-05-08 00:45 | 39.29712 | -75.76514 | 30991 ft | 502 kts | 31° |
| 2026-05-08 00:45 | 39.32369 | -75.73589 | 31323 ft | 503 kts | 31° |
| 2026-05-08 00:46 | 39.35046 | -75.70653 | 31616 ft | 505 kts | 31° |
| 2026-05-08 00:46 | 39.37729 | -75.67708 | 31966 ft | 508 kts | 31° |
| 2026-05-08 00:46 | 39.40434 | -75.64739 | 32191 ft | 512 kts | 31° |
| 2026-05-08 00:46 | 39.43154 | -75.61749 | 32493 ft | 514 kts | 31° |
| 2026-05-08 00:47 | 39.45887 | -75.58742 | 32774 ft | 516 kts | 31° |
| 2026-05-08 00:47 | 39.48625 | -75.55726 | 33040 ft | 519 kts | 31° |
| 2026-05-08 00:47 | 39.51379 | -75.52690 | 33330 ft | 521 kts | 31° |
| 2026-05-08 00:47 | 39.54142 | -75.49639 | 33606 ft | 523 kts | 31° |
| 2026-05-08 00:48 | 39.56918 | -75.46571 | 33919 ft | 525 kts | 31° |
| 2026-05-08 00:48 | 39.59704 | -75.43488 | 34122 ft | 528 kts | 31° |
| 2026-05-08 00:48 | 39.62501 | -75.40390 | 34348 ft | 529 kts | 31° |
| 2026-05-08 00:48 | 39.65306 | -75.37279 | 34622 ft | 530 kts | 32° |
| 2026-05-08 00:49 | 39.68109 | -75.34168 | 34850 ft | 532 kts | 32° |
| 2026-05-08 00:49 | 39.70926 | -75.31037 | 35143 ft | 532 kts | 32° |
| 2026-05-08 00:49 | 39.73732 | -75.27915 | 35471 ft | 531 kts | 32° |
| 2026-05-08 00:49 | 39.76537 | -75.24790 | 35789 ft | 531 kts | 32° |
| 2026-05-08 00:50 | 39.79289 | -75.21579 | 36083 ft | 537 kts | 39° |
| 2026-05-08 00:50 | 39.81780 | -75.17932 | 36384 ft | 539 kts | 42° |
| 2026-05-08 00:50 | 39.84256 | -75.14277 | 36647 ft | 539 kts | 42° |
| 2026-05-08 00:50 | 39.86726 | -75.10613 | 36939 ft | 538 kts | 42° |
| 2026-05-08 00:51 | 39.89189 | -75.06950 | 37212 ft | 538 kts | 43° |
| 2026-05-08 00:51 | 39.91649 | -75.03287 | 37456 ft | 536 kts | 43° |
| 2026-05-08 00:51 | 39.94100 | -74.99633 | 37802 ft | 535 kts | 43° |
| 2026-05-08 00:51 | 39.96535 | -74.95951 | 37999 ft | 538 kts | 47° |
| 2026-05-08 00:52 | 39.98679 | -74.91935 | 38236 ft | 541 kts | 52° |
| 2026-05-08 00:52 | 40.00069 | -74.89235 | 38376 ft | 541 kts | 52° |
| 2026-05-08 00:52 | 40.02162 | -74.85155 | 38562 ft | 541 kts | 52° |
| 2026-05-08 00:52 | 40.04249 | -74.81062 | 38737 ft | 541 kts | 52° |
| 2026-05-08 00:53 | 40.06329 | -74.76975 | 38858 ft | 541 kts | 52° |
| 2026-05-08 00:53 | 40.10486 | -74.68790 | 38846 ft | 539 kts | 52° |
| 2026-05-08 00:54 | 40.14631 | -74.60609 | 38848 ft | 541 kts | 52° |
| 2026-05-08 00:54 | 40.18774 | -74.52424 | 38853 ft | 540 kts | 51° |
| 2026-05-08 00:54 | 40.21174 | -74.48713 | 38823 ft | 527 kts | 34° |
| 2026-05-08 00:55 | 40.23961 | -74.45673 | 38892 ft | 523 kts | 33° |
| 2026-05-08 00:55 | 40.29574 | -74.39556 | 38916 ft | 525 kts | 32° |
| 2026-05-08 00:56 | 40.35241 | -74.33476 | 38838 ft | 526 kts | 32° |
| 2026-05-08 00:56 | 40.40917 | -74.27388 | 38868 ft | 528 kts | 32° |
| 2026-05-08 00:57 | 40.46598 | -74.21279 | 38875 ft | 528 kts | 32° |
| 2026-05-08 00:57 | 40.52251 | -74.15188 | 38881 ft | 530 kts | 32° |
| 2026-05-08 00:58 | 40.57944 | -74.09038 | 38876 ft | 531 kts | 32° |
| 2026-05-08 00:58 | 40.63652 | -74.02860 | 38866 ft | 531 kts | 32° |
| 2026-05-08 00:59 | 40.69359 | -73.96669 | 38864 ft | 533 kts | 33° |
| 2026-05-08 00:59 | 40.75095 | -73.90431 | 38872 ft | 535 kts | 33° |
| 2026-05-08 01:00 | 40.80826 | -73.84184 | 38861 ft | 534 kts | 33° |
| 2026-05-08 01:00 | 40.86338 | -73.77550 | 38811 ft | 544 kts | 49° |
| 2026-05-08 01:01 | 40.90390 | -73.69101 | 38856 ft | 547 kts | 55° |
| 2026-05-08 01:01 | 40.94368 | -73.60487 | 38863 ft | 550 kts | 56° |
| 2026-05-08 01:02 | 40.98315 | -73.51805 | 38871 ft | 551 kts | 56° |
| 2026-05-08 01:02 | 41.02254 | -73.43118 | 38884 ft | 551 kts | 56° |
| 2026-05-08 01:03 | 41.06180 | -73.34436 | 38858 ft | 550 kts | 56° |
| 2026-05-08 01:03 | 41.10077 | -73.25791 | 38860 ft | 551 kts | 56° |
| 2026-05-08 01:04 | 41.14000 | -73.17066 | 38883 ft | 551 kts | 57° |
| 2026-05-08 01:04 | 41.18024 | -73.08414 | 38890 ft | 551 kts | 55° |
| 2026-05-08 01:05 | 41.22085 | -72.99788 | 38890 ft | 551 kts | 55° |
| 2026-05-08 01:05 | 41.26136 | -72.91144 | 38846 ft | 551 kts | 55° |
| 2026-05-08 01:06 | 41.30184 | -72.82483 | 38888 ft | 552 kts | 56° |
| 2026-05-08 01:06 | 41.34233 | -72.73794 | 38888 ft | 553 kts | 56° |
| 2026-05-08 01:07 | 41.38279 | -72.65086 | 38892 ft | 554 kts | 56° |
| 2026-05-08 01:07 | 41.42325 | -72.56355 | 38868 ft | 553 kts | 56° |
| 2026-05-08 01:08 | 41.46362 | -72.47616 | 38887 ft | 554 kts | 56° |
| 2026-05-08 01:08 | 41.50391 | -72.38872 | 38852 ft | 553 kts | 56° |
| 2026-05-08 01:09 | 41.54414 | -72.30113 | 38850 ft | 553 kts | 56° |
| 2026-05-08 01:09 | 41.58395 | -72.21420 | 38829 ft | 553 kts | 56° |
| 2026-05-08 01:10 | 41.62409 | -72.12633 | 38892 ft | 554 kts | 56° |
| 2026-05-08 01:10 | 41.66408 | -72.03849 | 38868 ft | 553 kts | 56° |
| 2026-05-08 01:11 | 41.70402 | -71.95053 | 38863 ft | 553 kts | 57° |
| 2026-05-08 01:11 | 41.74392 | -71.86239 | 38843 ft | 553 kts | 57° |
| 2026-05-08 01:12 | 41.78376 | -71.77417 | 38876 ft | 553 kts | 57° |
| 2026-05-08 01:12 | 41.82353 | -71.68586 | 38678 ft | 553 kts | 57° |
| 2026-05-08 01:12 | 41.84279 | -71.64158 | 38316 ft | 549 kts | 62° |
| 2026-05-08 01:13 | 41.85977 | -71.59570 | 37526 ft | 551 kts | 63° |
| 2026-05-08 01:13 | 41.87669 | -71.54919 | 36486 ft | 558 kts | 63° |
| 2026-05-08 01:13 | 41.89370 | -71.50204 | 35540 ft | 564 kts | 63° |
| 2026-05-08 01:13 | 41.91064 | -71.45492 | 35109 ft | 558 kts | 63° |
| 2026-05-08 01:14 | 41.92723 | -71.40869 | 34438 ft | 557 kts | 63° |
| 2026-05-08 01:14 | 41.94393 | -71.36210 | 33739 ft | 552 kts | 63° |
| 2026-05-08 01:14 | 41.96037 | -71.31612 | 33012 ft | 541 kts | 63° |
| 2026-05-08 01:14 | 41.97648 | -71.27101 | 32381 ft | 529 kts | 63° |
| 2026-05-08 01:15 | 41.99222 | -71.22688 | 31886 ft | 521 kts | 63° |
| 2026-05-08 01:15 | 42.00778 | -71.18319 | 31399 ft | 517 kts | 63° |
| 2026-05-08 01:15 | 42.02327 | -71.13963 | 30849 ft | 515 kts | 63° |
| 2026-05-08 01:15 | 42.03868 | -71.09620 | 30255 ft | 514 kts | 63° |
| 2026-05-08 01:16 | 42.05393 | -71.05318 | 29680 ft | 503 kts | 63° |
| 2026-05-08 01:16 | 42.06884 | -71.01104 | 29097 ft | 498 kts | 63° |
| 2026-05-08 01:16 | 42.08547 | -70.97021 | 28526 ft | 494 kts | 50° |
| 2026-05-08 01:16 | 42.10858 | -70.93706 | 28061 ft | 479 kts | 31° |
| 2026-05-08 01:17 | 42.13666 | -70.91486 | 27709 ft | 461 kts | 13° |
| 2026-05-08 01:17 | 42.16653 | -70.89997 | 27278 ft | 457 kts | 11° |
| 2026-05-08 01:17 | 42.19632 | -70.88553 | 26751 ft | 453 kts | 11° |
| 2026-05-08 01:17 | 42.22598 | -70.87143 | 26291 ft | 450 kts | 11° |
| 2026-05-08 01:18 | 42.25549 | -70.85757 | 25838 ft | 448 kts | 11° |
| 2026-05-08 01:18 | 42.28490 | -70.84380 | 25365 ft | 446 kts | 11° |
| 2026-05-08 01:18 | 42.31410 | -70.83013 | 24925 ft | 443 kts | 11° |
| 2026-05-08 01:18 | 42.34318 | -70.81651 | 24473 ft | 441 kts | 11° |
| 2026-05-08 01:19 | 42.37168 | -70.80316 | 24028 ft | 438 kts | 11° |
| 2026-05-08 01:19 | 42.40081 | -70.78949 | 23613 ft | 436 kts | 11° |
| 2026-05-08 01:19 | 42.42904 | -70.77618 | 23093 ft | 436 kts | 13° |
| 2026-05-08 01:19 | 42.45768 | -70.76051 | 22506 ft | 439 kts | 15° |
| 2026-05-08 01:20 | 42.48546 | -70.74517 | 22097 ft | 435 kts | 15° |
| 2026-05-08 01:20 | 42.51337 | -70.72989 | 21700 ft | 431 kts | 15° |
| 2026-05-08 01:20 | 42.54113 | -70.71473 | 21252 ft | 429 kts | 15° |
| 2026-05-08 01:20 | 42.56875 | -70.69965 | 20813 ft | 427 kts | 15° |
| 2026-05-08 01:21 | 42.59625 | -70.68462 | 20392 ft | 426 kts | 15° |
| 2026-05-08 01:21 | 42.62371 | -70.66961 | 19943 ft | 425 kts | 15° |
| 2026-05-08 01:21 | 42.65110 | -70.65463 | 19502 ft | 424 kts | 15° |
| 2026-05-08 01:21 | 42.67833 | -70.63928 | 19036 ft | 426 kts | 19° |
| 2026-05-08 01:22 | 42.70515 | -70.62218 | 18606 ft | 425 kts | 19° |
| 2026-05-08 01:22 | 42.73195 | -70.60526 | 18190 ft | 423 kts | 19° |
| 2026-05-08 01:22 | 42.75861 | -70.58851 | 17734 ft | 422 kts | 19° |
| 2026-05-08 01:22 | 42.78513 | -70.57187 | 17310 ft | 414 kts | 19° |
| 2026-05-08 01:23 | 42.81071 | -70.55581 | 17027 ft | 398 kts | 19° |
| 2026-05-08 01:23 | 42.83558 | -70.54021 | 16609 ft | 390 kts | 19° |
| 2026-05-08 01:23 | 42.86000 | -70.52487 | 16204 ft | 382 kts | 18° |
| 2026-05-08 01:23 | 42.88397 | -70.50980 | 15820 ft | 379 kts | 19° |
| 2026-05-08 01:24 | 42.90787 | -70.49476 | 15423 ft | 377 kts | 19° |
| 2026-05-08 01:24 | 42.93160 | -70.47981 | 15109 ft | 374 kts | 19° |
| 2026-05-08 01:24 | 42.95496 | -70.46509 | 15071 ft | 366 kts | 19° |
| 2026-05-08 01:24 | 42.97803 | -70.45054 | 14616 ft | 367 kts | 19° |
| 2026-05-08 01:25 | 43.00128 | -70.43586 | 14072 ft | 370 kts | 19° |
| 2026-05-08 01:25 | 43.02433 | -70.42067 | 13471 ft | 377 kts | 26° |
| 2026-05-08 01:25 | 43.04649 | -70.40106 | 12946 ft | 379 kts | 28° |
| 2026-05-08 01:25 | 43.06849 | -70.38167 | 12667 ft | 371 kts | 28° |
| 2026-05-08 01:26 | 43.08966 | -70.36324 | 12835 ft | 350 kts | 27° |
| 2026-05-08 01:26 | 43.10986 | -70.34582 | 12838 ft | 336 kts | 27° |
| 2026-05-08 01:26 | 43.12925 | -70.32920 | 12847 ft | 322 kts | 27° |
| 2026-05-08 01:26 | 43.14778 | -70.31333 | 12842 ft | 308 kts | 26° |
| 2026-05-08 01:27 | 43.16551 | -70.29802 | 12840 ft | 293 kts | 27° |
| 2026-05-08 01:27 | 43.18217 | -70.28334 | 12839 ft | 281 kts | 26° |
| 2026-05-08 01:27 | 43.19857 | -70.26895 | 12799 ft | 279 kts | 26° |
| 2026-05-08 01:27 | 43.21489 | -70.25460 | 12576 ft | 277 kts | 26° |
| 2026-05-08 01:28 | 43.23088 | -70.24054 | 12326 ft | 268 kts | 26° |
| 2026-05-08 01:28 | 43.24625 | -70.22703 | 12066 ft | 258 kts | 26° |
| 2026-05-08 01:28 | 43.26136 | -70.21399 | 11652 ft | 256 kts | 25° |
| 2026-05-08 01:28 | 43.27642 | -70.20101 | 11202 ft | 256 kts | 26° |
| 2026-05-08 01:29 | 43.29149 | -70.18798 | 10733 ft | 257 kts | 26° |
| 2026-05-08 01:29 | 43.30663 | -70.17490 | 10241 ft | 257 kts | 26° |
| 2026-05-08 01:29 | 43.32185 | -70.16201 | 9769 ft | 257 kts | 24° |
| 2026-05-08 01:29 | 43.33737 | -70.14987 | 9247 ft | 256 kts | 24° |
| 2026-05-08 01:30 | 43.35259 | -70.13792 | 8757 ft | 249 kts | 24° |
| 2026-05-08 01:30 | 43.36744 | -70.12620 | 8244 ft | 244 kts | 25° |
| 2026-05-08 01:30 | 43.38183 | -70.11483 | 7753 ft | 240 kts | 25° |
| 2026-05-08 01:30 | 43.39613 | -70.10352 | 7270 ft | 235 kts | 25° |
| 2026-05-08 01:31 | 43.41022 | -70.09237 | 6802 ft | 232 kts | 25° |
| 2026-05-08 01:31 | 43.42407 | -70.08139 | 6352 ft | 228 kts | 26° |
| 2026-05-08 01:31 | 43.43771 | -70.07058 | 5902 ft | 224 kts | 25° |
| 2026-05-08 01:31 | 43.45102 | -70.06002 | 5526 ft | 217 kts | 25° |
| 2026-05-08 01:32 | 43.46377 | -70.04989 | 5250 ft | 206 kts | 25° |
| 2026-05-08 01:32 | 43.47587 | -70.04029 | 5024 ft | 196 kts | 25° |
| 2026-05-08 01:32 | 43.48742 | -70.03111 | 4840 ft | 188 kts | 25° |
| 2026-05-08 01:32 | 43.49849 | -70.02231 | 4652 ft | 180 kts | 24° |
| 2026-05-08 01:33 | 43.50939 | -70.01365 | 4480 ft | 184 kts | 25° |
| 2026-05-08 01:33 | 43.52046 | -70.00485 | 4349 ft | 188 kts | 25° |
| 2026-05-08 01:33 | 43.53175 | -69.99586 | 4180 ft | 188 kts | 25° |
| 2026-05-08 01:33 | 43.54301 | -69.98690 | 4044 ft | 187 kts | 25° |
| 2026-05-08 01:34 | 43.55425 | -69.97795 | 3939 ft | 186 kts | 25° |
| 2026-05-08 01:34 | 43.56561 | -69.96959 | 3840 ft | 182 kts | 13° |
| 2026-05-08 01:34 | 43.57767 | -69.96928 | 3682 ft | 171 kts | 338° |
| 2026-05-08 01:34 | 43.58753 | -69.97766 | 3592 ft | 166 kts | 312° |
| 2026-05-08 01:35 | 43.59483 | -69.99005 | 3524 ft | 167 kts | 306° |
| 2026-05-08 01:35 | 43.60175 | -70.00286 | 3434 ft | 166 kts | 306° |
| 2026-05-08 01:35 | 43.60848 | -70.01579 | 3310 ft | 166 kts | 305° |
| 2026-05-08 01:35 | 43.61510 | -70.02880 | 3190 ft | 165 kts | 304° |
| 2026-05-08 01:36 | 43.62163 | -70.04186 | 3082 ft | 165 kts | 304° |
| 2026-05-08 01:36 | 43.62568 | -70.05641 | 2990 ft | 162 kts | 279° |
| 2026-05-08 01:36 | 43.62713 | -70.07157 | 2998 ft | 157 kts | 280° |
| 2026-05-08 01:36 | 43.62850 | -70.08648 | 2985 ft | 156 kts | 279° |
| 2026-05-08 01:37 | 43.62975 | -70.10108 | 3038 ft | 153 kts | 279° |
| 2026-05-08 01:37 | 43.63094 | -70.11550 | 3043 ft | 150 kts | 278° |
| 2026-05-08 01:37 | 43.63207 | -70.12977 | 2998 ft | 149 kts | 278° |
| 2026-05-08 01:37 | 43.63325 | -70.14403 | 2825 ft | 150 kts | 278° |
| 2026-05-08 01:38 | 43.63430 | -70.15859 | 2232 ft | 155 kts | 278° |
| 2026-05-08 01:38 | 43.63534 | -70.17342 | 1639 ft | 155 kts | 278° |
| 2026-05-08 01:38 | 43.63631 | -70.18760 | 1371 ft | 139 kts | 279° |
| 2026-05-08 01:38 | 43.63709 | -70.20055 | 1066 ft | 131 kts | 278° |
| 2026-05-08 01:39 | 43.63794 | -70.21309 | 805 ft | 134 kts | 278° |
| 2026-05-08 01:39 | 43.63904 | -70.22624 | 650 ft | 142 kts | 278° |
| 2026-05-08 01:39 | 43.64003 | -70.23969 | 614 ft | 140 kts | 276° |
| 2026-05-08 01:39 | 43.64093 | -70.25307 | 534 ft | 140 kts | 276° |
| 2026-05-08 01:40 | 43.64185 | -70.26644 | 460 ft | 140 kts | 277° |
| 2026-05-08 01:40 | 43.64263 | -70.27970 | 348 ft | 137 kts | 278° |
| 2026-05-08 01:40 | 43.64371 | -70.29275 | 191 ft | 137 kts | 277° |
| 2026-05-08 01:40 | 43.64449 | -70.30579 | 159 ft | 142 kts | 277° |
| 2026-05-08 01:41 | 43.64552 | -70.32017 | 492 ft | 157 kts | 276° |
| 2026-05-08 01:41 | 43.64640 | -70.33553 | 936 ft | 159 kts | 275° |
| 2026-05-08 01:41 | 43.64727 | -70.35081 | 1437 ft | 164 kts | 276° |
| 2026-05-08 01:41 | 43.64768 | -70.36638 | 2073 ft | 162 kts | 275° |
| 2026-05-08 01:42 | 43.64808 | -70.38175 | 2425 ft | 159 kts | 275° |
| 2026-05-08 01:42 | 43.64848 | -70.39712 | 2701 ft | 166 kts | 275° |
| 2026-05-08 01:42 | 43.64899 | -70.41363 | 2938 ft | 170 kts | 275° |
| 2026-05-08 01:42 | 43.64901 | -70.42895 | 2930 ft | 156 kts | 270° |
| 2026-05-08 01:43 | 43.64657 | -70.44428 | 2937 ft | 176 kts | 244° |
| 2026-05-08 01:43 | 43.63693 | -70.45599 | 2990 ft | 197 kts | 214° |
| 2026-05-08 01:43 | 43.62437 | -70.46445 | 3044 ft | 204 kts | 210° |
| 2026-05-08 01:43 | 43.61137 | -70.47266 | 3016 ft | 206 kts | 209° |
| 2026-05-08 01:44 | 43.59830 | -70.48085 | 2998 ft | 206 kts | 210° |
| 2026-05-08 01:44 | 43.58523 | -70.48908 | 3004 ft | 207 kts | 209° |
| 2026-05-08 01:44 | 43.57215 | -70.49735 | 3004 ft | 207 kts | 209° |
| 2026-05-08 01:44 | 43.55907 | -70.50561 | 3018 ft | 207 kts | 209° |
| 2026-05-08 01:45 | 43.54600 | -70.51386 | 2998 ft | 207 kts | 209° |
| 2026-05-08 01:45 | 43.53291 | -70.52216 | 3008 ft | 207 kts | 209° |
| 2026-05-08 01:45 | 43.51894 | -70.52780 | 2985 ft | 215 kts | 185° |
| 2026-05-08 01:45 | 43.50467 | -70.52238 | 2980 ft | 222 kts | 150° |
| 2026-05-08 01:46 | 43.49448 | -70.50664 | 3008 ft | 223 kts | 115° |
| 2026-05-08 01:46 | 43.48913 | -70.48664 | 3049 ft | 223 kts | 106° |
| 2026-05-08 01:46 | 43.48457 | -70.46618 | 3037 ft | 224 kts | 105° |
| 2026-05-08 01:46 | 43.48005 | -70.44573 | 3005 ft | 223 kts | 105° |
| 2026-05-08 01:47 | 43.47550 | -70.42529 | 2965 ft | 223 kts | 105° |
| 2026-05-08 01:47 | 43.47080 | -70.40490 | 2979 ft | 224 kts | 109° |
| 2026-05-08 01:47 | 43.46250 | -70.38695 | 2979 ft | 224 kts | 133° |
| 2026-05-08 01:48 | 43.44131 | -70.35531 | 3025 ft | 225 kts | 132° |
| 2026-05-08 01:48 | 43.43094 | -70.33929 | 2998 ft | 225 kts | 132° |
| 2026-05-08 01:48 | 43.42060 | -70.32311 | 3008 ft | 225 kts | 131° |
| 2026-05-08 01:48 | 43.41032 | -70.30691 | 3005 ft | 225 kts | 131° |
| 2026-05-08 01:49 | 43.40009 | -70.29072 | 3001 ft | 225 kts | 131° |
| 2026-05-08 01:49 | 43.38986 | -70.27447 | 3005 ft | 225 kts | 131° |
| 2026-05-08 01:49 | 43.37963 | -70.25820 | 3009 ft | 225 kts | 131° |
| 2026-05-08 01:49 | 43.36954 | -70.24214 | 3005 ft | 225 kts | 131° |
| 2026-05-08 01:50 | 43.36265 | -70.22333 | 2954 ft | 221 kts | 94° |
| 2026-05-08 01:50 | 43.36504 | -70.20302 | 3001 ft | 216 kts | 71° |
| 2026-05-08 01:50 | 43.36850 | -70.18275 | 3053 ft | 219 kts | 74° |
| 2026-05-08 01:50 | 43.37170 | -70.16229 | 3034 ft | 219 kts | 74° |
| 2026-05-08 01:51 | 43.37486 | -70.14183 | 3013 ft | 219 kts | 74° |
| 2026-05-08 01:51 | 43.37800 | -70.12137 | 3001 ft | 219 kts | 74° |
| 2026-05-08 01:51 | 43.38116 | -70.10089 | 3012 ft | 219 kts | 74° |
| 2026-05-08 01:51 | 43.38432 | -70.08046 | 3005 ft | 219 kts | 74° |
| 2026-05-08 01:52 | 43.38749 | -70.06004 | 3008 ft | 219 kts | 74° |
| 2026-05-08 01:52 | 43.39064 | -70.03960 | 3003 ft | 219 kts | 74° |
| 2026-05-08 01:52 | 43.39383 | -70.01914 | 3003 ft | 219 kts | 74° |
| 2026-05-08 01:52 | 43.39871 | -69.99967 | 2972 ft | 212 kts | 51° |
| 2026-05-08 01:53 | 43.40522 | -69.98997 | 2990 ft | 207 kts | 36° |
| 2026-05-08 01:53 | 43.41720 | -69.98004 | 3013 ft | 190 kts | 14° |
| 2026-05-08 01:53 | 43.42968 | -69.97726 | 3027 ft | 179 kts | 360° |
| 2026-05-08 01:53 | 43.44207 | -69.97580 | 3027 ft | 179 kts | 0° |
| 2026-05-08 01:54 | 43.45842 | -69.97373 | 3014 ft | 178 kts | 1° |
| 2026-05-08 01:54 | 43.47078 | -69.97210 | 3009 ft | 178 kts | 1° |
| 2026-05-08 01:54 | 43.48311 | -69.97044 | 3011 ft | 178 kts | 1° |
| 2026-05-08 01:54 | 43.49147 | -69.96929 | 3010 ft | 178 kts | 1° |
| 2026-05-08 01:55 | 43.50779 | -69.96702 | 3009 ft | 178 kts | 1° |
| 2026-05-08 01:55 | 43.51595 | -69.96588 | 3005 ft | 178 kts | 1° |
| 2026-05-08 01:55 | 43.52830 | -69.96414 | 3007 ft | 178 kts | 1° |
| 2026-05-08 01:55 | 43.54060 | -69.96240 | 3002 ft | 178 kts | 1° |
| 2026-05-08 01:56 | 43.55294 | -69.96066 | 3006 ft | 178 kts | 1° |
| 2026-05-08 01:56 | 43.56528 | -69.95892 | 3004 ft | 178 kts | 1° |
| 2026-05-08 01:56 | 43.57703 | -69.96180 | 2977 ft | 171 kts | 329° |
| 2026-05-08 01:56 | 43.58580 | -69.97251 | 2998 ft | 169 kts | 309° |
| 2026-05-08 01:57 | 43.59299 | -69.98544 | 3021 ft | 170 kts | 306° |
| 2026-05-08 01:57 | 43.59997 | -69.99861 | 3005 ft | 170 kts | 306° |
| 2026-05-08 01:57 | 43.60682 | -70.01193 | 3018 ft | 170 kts | 305° |
| 2026-05-08 01:57 | 43.61356 | -70.02531 | 3013 ft | 170 kts | 304° |
| 2026-05-08 01:58 | 43.62025 | -70.03875 | 3012 ft | 169 kts | 304° |
| 2026-05-08 01:58 | 43.62514 | -70.05277 | 2974 ft | 161 kts | 282° |
| 2026-05-08 01:58 | 43.62678 | -70.06835 | 2998 ft | 163 kts | 280° |
| 2026-05-08 01:58 | 43.62816 | -70.08304 | 2969 ft | 150 kts | 280° |
| 2026-05-08 01:59 | 43.62965 | -70.09713 | 2859 ft | 147 kts | 281° |
| 2026-05-08 01:59 | 43.63095 | -70.11107 | 2699 ft | 146 kts | 279° |
| 2026-05-08 01:59 | 43.63205 | -70.12475 | 2521 ft | 141 kts | 279° |
| 2026-05-08 01:59 | 43.63301 | -70.13772 | 2359 ft | 132 kts | 279° |
| 2026-05-08 02:00 | 43.63391 | -70.15017 | 2195 ft | 130 kts | 279° |
| 2026-05-08 02:00 | 43.63477 | -70.16254 | 2025 ft | 130 kts | 279° |
| 2026-05-08 02:00 | 43.63563 | -70.17494 | 1845 ft | 130 kts | 279° |
| 2026-05-08 02:00 | 43.63647 | -70.18732 | 1668 ft | 130 kts | 280° |
| 2026-05-08 02:01 | 43.63731 | -70.19974 | 1492 ft | 131 kts | 280° |
| 2026-05-08 02:01 | 43.63818 | -70.21222 | 1324 ft | 131 kts | 279° |
| 2026-05-08 02:01 | 43.63901 | -70.22474 | 1141 ft | 131 kts | 279° |
| 2026-05-08 02:01 | 43.63986 | -70.23731 | 957 ft | 132 kts | 279° |
| 2026-05-08 02:02 | 43.64079 | -70.24992 | 733 ft | 133 kts | 279° |
| 2026-05-08 02:02 | 43.64183 | -70.26298 | 573 ft | 145 kts | 277° |
| 2026-05-08 02:02 | 43.64267 | -70.27711 | 392 ft | 148 kts | 277° |
| 2026-05-08 02:02 | 43.64354 | -70.29088 | 157 ft | 139 kts | 278° |
| 2026-05-08 02:03 | 43.64437 | -70.30343 | 58 ft | 116 kts | 276° |
| 2026-05-08 02:03 | 43.64493 | -70.31196 | 66 ft | 65 kts | 275° |
| 2026-05-08 02:03 | 43.64522 | -70.31545 | 69 ft | 18 kts | 294° |
| 2026-05-08 02:03 | 43.64618 | -70.31545 | 65 ft | 17 kts | 68° |
| 2026-05-08 02:04 | 43.64619 | -70.31412 | 63 ft | 11 kts | 94° |
| 2026-05-08 02:04 | 43.64611 | -70.31315 | 64 ft | 6 kts | 97° |
| 2026-05-08 02:04 | 43.64616 | -70.31283 | 57 ft | 3 kts | 52° |
| 2026-05-08 02:04 | 43.64639 | -70.31265 | 80 ft | 5 kts | 27° |
| 2026-05-08 02:05 | 43.64664 | -70.31245 | 66 ft | 0 kts | 31° |